sensor_id;sensor_type;location;lat;lon;timestamp;P1;durP1;ratioP1;P2;durP2;ratioP2
9689;SDS011;4884;42.614;23.340;2024-01-30T00:02:09;12.57;;;7.60;;
9689;SDS011;4884;42.614;23.340;2024-01-30T00:04:34;11.77;;;8.33;;
9689;SDS011;4884;42.614;23.340;2024-01-30T00:07:00;16.80;;;9.77;;
9689;SDS011;4884;42.614;23.340;2024-01-30T00:09:25;14.80;;;10.23;;
9689;SDS011;4884;42.614;23.340;2024-01-30T00:11:50;15.10;;;8.97;;
9689;SDS011;4884;42.614;23.340;2024-01-30T00:14:16;15.33;;;8.33;;
9689;SDS011;4884;42.614;23.340;2024-01-30T00:16:41;13.50;;;7.53;;
9689;SDS011;4884;42.614;23.340;2024-01-30T00:19:06;9.97;;;6.97;;
9689;SDS011;4884;42.614;23.340;2024-01-30T00:21:33;8.13;;;5.80;;
9689;SDS011;4884;42.614;23.340;2024-01-30T00:23:58;7.93;;;6.10;;
9689;SDS011;4884;42.614;23.340;2024-01-30T00:26:24;9.17;;;5.60;;
9689;SDS011;4884;42.614;23.340;2024-01-30T00:28:49;8.73;;;6.43;;
9689;SDS011;4884;42.614;23.340;2024-01-30T00:31:14;9.03;;;5.90;;
9689;SDS011;4884;42.614;23.340;2024-01-30T00:33:40;8.57;;;5.10;;
9689;SDS011;4884;42.614;23.340;2024-01-30T00:36:06;10.03;;;6.00;;
9689;SDS011;4884;42.614;23.340;2024-01-30T00:38:32;10.33;;;6.07;;
9689;SDS011;4884;42.614;23.340;2024-01-30T00:40:58;7.30;;;5.23;;
9689;SDS011;4884;42.614;23.340;2024-01-30T00:43:23;5.73;;;4.87;;
9689;SDS011;4884;42.614;23.340;2024-01-30T00:45:50;7.13;;;5.13;;
9689;SDS011;4884;42.614;23.340;2024-01-30T00:48:17;9.67;;;6.07;;
9689;SDS011;4884;42.614;23.340;2024-01-30T00:50:42;19.07;;;6.83;;
9689;SDS011;4884;42.614;23.340;2024-01-30T00:53:08;7.93;;;5.60;;
9689;SDS011;4884;42.614;23.340;2024-01-30T00:55:33;7.27;;;5.03;;
9689;SDS011;4884;42.614;23.340;2024-01-30T00:57:58;7.93;;;5.13;;
9689;SDS011;4884;42.614;23.340;2024-01-30T01:00:23;7.33;;;5.43;;
9689;SDS011;4884;42.614;23.340;2024-01-30T01:02:54;9.10;;;5.60;;
9689;SDS011;4884;42.614;23.340;2024-01-30T01:05:22;9.63;;;6.47;;
9689;SDS011;4884;42.614;23.340;2024-01-30T01:07:47;19.47;;;9.30;;
9689;SDS011;4884;42.614;23.340;2024-01-30T01:10:13;14.80;;;7.37;;
9689;SDS011;4884;42.614;23.340;2024-01-30T01:12:39;13.83;;;7.30;;
9689;SDS011;4884;42.614;23.340;2024-01-30T01:15:05;17.73;;;8.50;;
9689;SDS011;4884;42.614;23.340;2024-01-30T01:17:34;16.93;;;9.40;;
9689;SDS011;4884;42.614;23.340;2024-01-30T01:19:59;16.27;;;8.23;;
9689;SDS011;4884;42.614;23.340;2024-01-30T01:22:24;13.97;;;7.70;;
9689;SDS011;4884;42.614;23.340;2024-01-30T01:24:50;11.03;;;6.27;;
9689;SDS011;4884;42.614;23.340;2024-01-30T01:27:15;12.07;;;7.27;;
9689;SDS011;4884;42.614;23.340;2024-01-30T01:29:41;8.60;;;5.20;;
9689;SDS011;4884;42.614;23.340;2024-01-30T01:32:06;12.47;;;7.00;;
9689;SDS011;4884;42.614;23.340;2024-01-30T01:34:31;18.53;;;7.73;;
9689;SDS011;4884;42.614;23.340;2024-01-30T01:36:57;15.70;;;8.00;;
9689;SDS011;4884;42.614;23.340;2024-01-30T01:39:22;18.00;;;7.00;;
9689;SDS011;4884;42.614;23.340;2024-01-30T01:41:51;8.60;;;4.80;;
9689;SDS011;4884;42.614;23.340;2024-01-30T01:44:17;14.97;;;6.87;;
9689;SDS011;4884;42.614;23.340;2024-01-30T01:46:43;13.77;;;7.63;;
9689;SDS011;4884;42.614;23.340;2024-01-30T01:49:08;14.50;;;9.20;;
9689;SDS011;4884;42.614;23.340;2024-01-30T01:51:35;15.57;;;8.23;;
9689;SDS011;4884;42.614;23.340;2024-01-30T01:54:01;17.70;;;9.83;;
9689;SDS011;4884;42.614;23.340;2024-01-30T01:56:29;13.00;;;6.43;;
9689;SDS011;4884;42.614;23.340;2024-01-30T01:58:55;10.13;;;5.33;;
9689;SDS011;4884;42.614;23.340;2024-01-30T02:01:21;14.00;;;6.73;;
9689;SDS011;4884;42.614;23.340;2024-01-30T02:03:46;16.37;;;6.87;;
9689;SDS011;4884;42.614;23.340;2024-01-30T02:06:12;12.63;;;6.43;;
9689;SDS011;4884;42.614;23.340;2024-01-30T02:08:38;12.03;;;6.13;;
9689;SDS011;4884;42.614;23.340;2024-01-30T02:11:04;11.27;;;5.63;;
9689;SDS011;4884;42.614;23.340;2024-01-30T02:13:29;10.83;;;6.10;;
9689;SDS011;4884;42.614;23.340;2024-01-30T02:15:55;9.20;;;5.40;;
9689;SDS011;4884;42.614;23.340;2024-01-30T02:18:20;9.63;;;5.27;;
9689;SDS011;4884;42.614;23.340;2024-01-30T02:20:48;7.93;;;5.77;;
9689;SDS011;4884;42.614;23.340;2024-01-30T02:23:15;7.30;;;4.90;;
9689;SDS011;4884;42.614;23.340;2024-01-30T02:25:40;7.30;;;4.83;;
9689;SDS011;4884;42.614;23.340;2024-01-30T02:28:12;7.63;;;4.77;;
9689;SDS011;4884;42.614;23.340;2024-01-30T02:30:47;6.40;;;5.03;;
9689;SDS011;4884;42.614;23.340;2024-01-30T02:33:13;5.47;;;4.43;;
9689;SDS011;4884;42.614;23.340;2024-01-30T02:35:38;6.13;;;4.03;;
9689;SDS011;4884;42.614;23.340;2024-01-30T02:38:04;5.13;;;4.20;;
9689;SDS011;4884;42.614;23.340;2024-01-30T02:40:29;9.17;;;5.13;;
9689;SDS011;4884;42.614;23.340;2024-01-30T02:42:55;7.57;;;4.53;;
9689;SDS011;4884;42.614;23.340;2024-01-30T02:45:21;6.50;;;4.57;;
9689;SDS011;4884;42.614;23.340;2024-01-30T02:47:46;6.40;;;4.40;;
9689;SDS011;4884;42.614;23.340;2024-01-30T02:50:12;6.47;;;4.43;;
9689;SDS011;4884;42.614;23.340;2024-01-30T02:52:37;6.30;;;4.30;;
9689;SDS011;4884;42.614;23.340;2024-01-30T02:55:03;9.37;;;5.33;;
9689;SDS011;4884;42.614;23.340;2024-01-30T02:57:28;7.13;;;4.80;;
9689;SDS011;4884;42.614;23.340;2024-01-30T02:59:54;7.07;;;3.87;;
9689;SDS011;4884;42.614;23.340;2024-01-30T03:02:19;5.50;;;3.93;;
9689;SDS011;4884;42.614;23.340;2024-01-30T03:04:45;5.47;;;3.93;;
9689;SDS011;4884;42.614;23.340;2024-01-30T03:07:10;5.93;;;4.23;;
9689;SDS011;4884;42.614;23.340;2024-01-30T03:09:36;6.93;;;4.40;;
9689;SDS011;4884;42.614;23.340;2024-01-30T03:12:02;7.17;;;4.57;;
9689;SDS011;4884;42.614;23.340;2024-01-30T03:14:30;6.47;;;4.17;;
9689;SDS011;4884;42.614;23.340;2024-01-30T03:16:56;7.03;;;4.47;;
9689;SDS011;4884;42.614;23.340;2024-01-30T03:19:21;8.47;;;5.10;;
9689;SDS011;4884;42.614;23.340;2024-01-30T03:21:46;7.33;;;4.87;;
9689;SDS011;4884;42.614;23.340;2024-01-30T03:24:12;5.77;;;4.07;;
9689;SDS011;4884;42.614;23.340;2024-01-30T03:26:37;5.40;;;3.80;;
9689;SDS011;4884;42.614;23.340;2024-01-30T03:29:02;5.63;;;3.77;;
9689;SDS011;4884;42.614;23.340;2024-01-30T03:31:28;7.17;;;4.30;;
9689;SDS011;4884;42.614;23.340;2024-01-30T03:33:53;5.47;;;4.10;;
9689;SDS011;4884;42.614;23.340;2024-01-30T03:36:18;6.03;;;4.20;;
9689;SDS011;4884;42.614;23.340;2024-01-30T03:38:44;6.13;;;3.87;;
9689;SDS011;4884;42.614;23.340;2024-01-30T03:41:09;5.27;;;3.50;;
9689;SDS011;4884;42.614;23.340;2024-01-30T03:43:35;5.50;;;3.50;;
9689;SDS011;4884;42.614;23.340;2024-01-30T03:46:01;8.03;;;4.57;;
9689;SDS011;4884;42.614;23.340;2024-01-30T03:48:27;6.17;;;4.53;;
9689;SDS011;4884;42.614;23.340;2024-01-30T03:50:52;4.67;;;3.43;;
9689;SDS011;4884;42.614;23.340;2024-01-30T03:53:17;5.17;;;4.40;;
9689;SDS011;4884;42.614;23.340;2024-01-30T03:55:43;5.13;;;4.10;;
9689;SDS011;4884;42.614;23.340;2024-01-30T03:58:08;6.57;;;3.83;;
9689;SDS011;4884;42.614;23.340;2024-01-30T04:00:33;8.17;;;4.17;;
9689;SDS011;4884;42.614;23.340;2024-01-30T04:02:59;8.07;;;4.50;;
9689;SDS011;4884;42.614;23.340;2024-01-30T04:05:24;4.73;;;3.37;;
9689;SDS011;4884;42.614;23.340;2024-01-30T04:07:49;7.17;;;3.33;;
9689;SDS011;4884;42.614;23.340;2024-01-30T04:10:15;6.77;;;4.20;;
9689;SDS011;4884;42.614;23.340;2024-01-30T04:12:41;3.47;;;2.73;;
9689;SDS011;4884;42.614;23.340;2024-01-30T04:15:06;4.13;;;3.00;;
9689;SDS011;4884;42.614;23.340;2024-01-30T04:17:32;2.27;;;1.80;;
9689;SDS011;4884;42.614;23.340;2024-01-30T04:19:58;4.90;;;2.80;;
9689;SDS011;4884;42.614;23.340;2024-01-30T04:22:23;4.27;;;2.73;;
9689;SDS011;4884;42.614;23.340;2024-01-30T04:24:48;3.83;;;2.33;;
9689;SDS011;4884;42.614;23.340;2024-01-30T04:27:14;3.57;;;2.63;;
9689;SDS011;4884;42.614;23.340;2024-01-30T04:29:39;4.33;;;2.53;;
9689;SDS011;4884;42.614;23.340;2024-01-30T04:32:04;3.20;;;2.83;;
9689;SDS011;4884;42.614;23.340;2024-01-30T04:34:30;4.27;;;2.57;;
9689;SDS011;4884;42.614;23.340;2024-01-30T04:36:55;2.97;;;2.03;;
9689;SDS011;4884;42.614;23.340;2024-01-30T04:39:21;3.80;;;2.50;;
9689;SDS011;4884;42.614;23.340;2024-01-30T04:41:46;3.10;;;2.17;;
9689;SDS011;4884;42.614;23.340;2024-01-30T04:44:11;2.67;;;2.03;;
9689;SDS011;4884;42.614;23.340;2024-01-30T04:46:37;5.07;;;2.57;;
9689;SDS011;4884;42.614;23.340;2024-01-30T04:49:02;12.03;;;5.87;;
9689;SDS011;4884;42.614;23.340;2024-01-30T04:51:28;7.17;;;4.57;;
9689;SDS011;4884;42.614;23.340;2024-01-30T04:53:54;5.80;;;3.80;;
9689;SDS011;4884;42.614;23.340;2024-01-30T04:56:19;5.20;;;3.67;;
9689;SDS011;4884;42.614;23.340;2024-01-30T04:58:45;3.30;;;2.10;;
9689;SDS011;4884;42.614;23.340;2024-01-30T05:01:14;2.67;;;2.10;;
9689;SDS011;4884;42.614;23.340;2024-01-30T05:03:40;3.40;;;1.97;;
9689;SDS011;4884;42.614;23.340;2024-01-30T05:06:05;3.90;;;2.87;;
9689;SDS011;4884;42.614;23.340;2024-01-30T05:08:31;2.60;;;1.90;;
9689;SDS011;4884;42.614;23.340;2024-01-30T05:10:56;4.83;;;2.93;;
9689;SDS011;4884;42.614;23.340;2024-01-30T05:13:25;8.07;;;3.87;;
9689;SDS011;4884;42.614;23.340;2024-01-30T05:15:50;22.40;;;9.30;;
9689;SDS011;4884;42.614;23.340;2024-01-30T05:18:15;23.27;;;9.83;;
9689;SDS011;4884;42.614;23.340;2024-01-30T05:20:41;15.60;;;7.37;;
9689;SDS011;4884;42.614;23.340;2024-01-30T05:23:06;7.90;;;4.83;;
9689;SDS011;4884;42.614;23.340;2024-01-30T05:25:32;9.20;;;4.70;;
9689;SDS011;4884;42.614;23.340;2024-01-30T05:27:57;10.67;;;4.80;;
9689;SDS011;4884;42.614;23.340;2024-01-30T05:30:22;12.53;;;6.40;;
9689;SDS011;4884;42.614;23.340;2024-01-30T05:32:48;14.97;;;7.97;;
9689;SDS011;4884;42.614;23.340;2024-01-30T05:35:13;15.37;;;7.53;;
9689;SDS011;4884;42.614;23.340;2024-01-30T05:37:38;16.17;;;6.93;;
9689;SDS011;4884;42.614;23.340;2024-01-30T05:40:04;13.07;;;5.77;;
9689;SDS011;4884;42.614;23.340;2024-01-30T05:42:30;10.30;;;5.67;;
9689;SDS011;4884;42.614;23.340;2024-01-30T05:44:55;10.53;;;5.40;;
9689;SDS011;4884;42.614;23.340;2024-01-30T05:47:20;7.97;;;4.73;;
9689;SDS011;4884;42.614;23.340;2024-01-30T05:49:46;9.93;;;4.50;;
9689;SDS011;4884;42.614;23.340;2024-01-30T05:52:11;13.23;;;7.37;;
9689;SDS011;4884;42.614;23.340;2024-01-30T05:54:36;21.60;;;11.80;;
9689;SDS011;4884;42.614;23.340;2024-01-30T05:57:02;17.93;;;10.70;;
9689;SDS011;4884;42.614;23.340;2024-01-30T05:59:27;12.67;;;7.27;;
9689;SDS011;4884;42.614;23.340;2024-01-30T06:01:53;10.17;;;4.67;;
9689;SDS011;4884;42.614;23.340;2024-01-30T06:04:18;6.37;;;4.60;;
9689;SDS011;4884;42.614;23.340;2024-01-30T06:06:44;7.43;;;3.77;;
9689;SDS011;4884;42.614;23.340;2024-01-30T06:09:09;5.57;;;4.40;;
9689;SDS011;4884;42.614;23.340;2024-01-30T06:11:34;9.87;;;4.00;;
9689;SDS011;4884;42.614;23.340;2024-01-30T06:14:00;8.10;;;5.47;;
9689;SDS011;4884;42.614;23.340;2024-01-30T06:16:26;6.83;;;5.30;;
9689;SDS011;4884;42.614;23.340;2024-01-30T06:18:54;5.77;;;3.83;;
9689;SDS011;4884;42.614;23.340;2024-01-30T06:21:20;5.47;;;3.70;;
9689;SDS011;4884;42.614;23.340;2024-01-30T06:23:45;7.37;;;4.27;;
9689;SDS011;4884;42.614;23.340;2024-01-30T06:26:11;8.60;;;4.33;;
9689;SDS011;4884;42.614;23.340;2024-01-30T06:28:36;4.30;;;3.03;;
9689;SDS011;4884;42.614;23.340;2024-01-30T06:31:20;6.27;;;3.40;;
9689;SDS011;4884;42.614;23.340;2024-01-30T06:33:49;5.33;;;3.30;;
9689;SDS011;4884;42.614;23.340;2024-01-30T06:36:14;4.20;;;2.87;;
9689;SDS011;4884;42.614;23.340;2024-01-30T06:38:40;5.10;;;3.43;;
9689;SDS011;4884;42.614;23.340;2024-01-30T06:41:05;6.33;;;3.67;;
9689;SDS011;4884;42.614;23.340;2024-01-30T06:43:31;6.23;;;4.80;;
9689;SDS011;4884;42.614;23.340;2024-01-30T06:45:56;4.63;;;3.47;;
9689;SDS011;4884;42.614;23.340;2024-01-30T06:48:21;5.17;;;3.73;;
9689;SDS011;4884;42.614;23.340;2024-01-30T06:50:47;10.67;;;5.50;;
9689;SDS011;4884;42.614;23.340;2024-01-30T06:53:13;5.83;;;3.53;;
9689;SDS011;4884;42.614;23.340;2024-01-30T06:55:38;10.77;;;5.37;;
9689;SDS011;4884;42.614;23.340;2024-01-30T06:58:03;4.47;;;2.43;;
9689;SDS011;4884;42.614;23.340;2024-01-30T07:00:29;13.37;;;7.07;;
9689;SDS011;4884;42.614;23.340;2024-01-30T07:02:54;3.87;;;2.50;;
9689;SDS011;4884;42.614;23.340;2024-01-30T07:05:19;4.10;;;2.50;;
9689;SDS011;4884;42.614;23.340;2024-01-30T07:07:46;4.47;;;3.50;;
9689;SDS011;4884;42.614;23.340;2024-01-30T07:10:12;3.50;;;2.47;;
9689;SDS011;4884;42.614;23.340;2024-01-30T07:12:37;6.57;;;4.00;;
9689;SDS011;4884;42.614;23.340;2024-01-30T07:15:03;4.53;;;3.43;;
9689;SDS011;4884;42.614;23.340;2024-01-30T07:17:28;3.70;;;2.47;;
9689;SDS011;4884;42.614;23.340;2024-01-30T07:19:54;1.83;;;1.63;;
9689;SDS011;4884;42.614;23.340;2024-01-30T07:22:19;2.60;;;1.53;;
9689;SDS011;4884;42.614;23.340;2024-01-30T07:24:44;2.53;;;2.03;;
9689;SDS011;4884;42.614;23.340;2024-01-30T07:27:12;2.50;;;2.00;;
9689;SDS011;4884;42.614;23.340;2024-01-30T07:29:38;2.83;;;1.93;;
9689;SDS011;4884;42.614;23.340;2024-01-30T07:32:03;4.27;;;3.40;;
9689;SDS011;4884;42.614;23.340;2024-01-30T07:34:29;4.87;;;3.43;;
9689;SDS011;4884;42.614;23.340;2024-01-30T07:36:54;3.13;;;2.30;;
9689;SDS011;4884;42.614;23.340;2024-01-30T07:39:19;4.93;;;3.27;;
9689;SDS011;4884;42.614;23.340;2024-01-30T07:41:45;3.40;;;2.97;;
9689;SDS011;4884;42.614;23.340;2024-01-30T07:44:10;2.20;;;1.70;;
9689;SDS011;4884;42.614;23.340;2024-01-30T07:46:36;2.20;;;1.90;;
9689;SDS011;4884;42.614;23.340;2024-01-30T07:49:01;2.63;;;2.23;;
9689;SDS011;4884;42.614;23.340;2024-01-30T07:51:26;3.10;;;2.20;;
9689;SDS011;4884;42.614;23.340;2024-01-30T07:53:53;1.93;;;1.80;;
9689;SDS011;4884;42.614;23.340;2024-01-30T07:56:18;4.73;;;3.70;;
9689;SDS011;4884;42.614;23.340;2024-01-30T07:58:44;5.60;;;4.30;;
9689;SDS011;4884;42.614;23.340;2024-01-30T08:01:09;2.40;;;2.17;;
9689;SDS011;4884;42.614;23.340;2024-01-30T08:03:35;2.13;;;1.93;;
9689;SDS011;4884;42.614;23.340;2024-01-30T08:06:01;2.20;;;2.00;;
9689;SDS011;4884;42.614;23.340;2024-01-30T08:08:28;3.10;;;2.53;;
9689;SDS011;4884;42.614;23.340;2024-01-30T08:10:53;2.43;;;2.23;;
9689;SDS011;4884;42.614;23.340;2024-01-30T08:13:18;3.10;;;2.40;;
9689;SDS011;4884;42.614;23.340;2024-01-30T08:15:44;2.87;;;2.63;;
9689;SDS011;4884;42.614;23.340;2024-01-30T08:18:09;3.63;;;3.00;;
9689;SDS011;4884;42.614;23.340;2024-01-30T08:20:34;3.57;;;2.50;;
9689;SDS011;4884;42.614;23.340;2024-01-30T08:23:00;3.93;;;2.87;;
9689;SDS011;4884;42.614;23.340;2024-01-30T08:25:25;3.53;;;2.73;;
9689;SDS011;4884;42.614;23.340;2024-01-30T08:27:51;4.20;;;3.67;;
9689;SDS011;4884;42.614;23.340;2024-01-30T08:30:16;2.83;;;2.63;;
9689;SDS011;4884;42.614;23.340;2024-01-30T08:32:42;2.57;;;2.30;;
9689;SDS011;4884;42.614;23.340;2024-01-30T08:35:07;3.87;;;2.97;;
9689;SDS011;4884;42.614;23.340;2024-01-30T08:37:34;4.67;;;3.03;;
9689;SDS011;4884;42.614;23.340;2024-01-30T08:39:59;4.53;;;4.03;;
9689;SDS011;4884;42.614;23.340;2024-01-30T08:42:25;4.30;;;2.90;;
9689;SDS011;4884;42.614;23.340;2024-01-30T08:44:50;6.57;;;3.73;;
9689;SDS011;4884;42.614;23.340;2024-01-30T08:47:17;4.23;;;3.60;;
9689;SDS011;4884;42.614;23.340;2024-01-30T08:49:43;6.17;;;3.93;;
9689;SDS011;4884;42.614;23.340;2024-01-30T08:52:09;4.23;;;3.47;;
9689;SDS011;4884;42.614;23.340;2024-01-30T08:54:35;3.20;;;2.90;;
9689;SDS011;4884;42.614;23.340;2024-01-30T08:57:00;5.70;;;3.03;;
9689;SDS011;4884;42.614;23.340;2024-01-30T08:59:26;3.00;;;2.70;;
9689;SDS011;4884;42.614;23.340;2024-01-30T09:01:51;3.97;;;3.43;;
9689;SDS011;4884;42.614;23.340;2024-01-30T09:04:20;3.50;;;3.17;;
9689;SDS011;4884;42.614;23.340;2024-01-30T09:06:45;4.33;;;3.60;;
9689;SDS011;4884;42.614;23.340;2024-01-30T09:09:11;3.40;;;3.10;;
9689;SDS011;4884;42.614;23.340;2024-01-30T09:11:36;3.77;;;3.47;;
9689;SDS011;4884;42.614;23.340;2024-01-30T09:14:02;4.63;;;3.30;;
9689;SDS011;4884;42.614;23.340;2024-01-30T09:16:27;3.83;;;3.33;;
9689;SDS011;4884;42.614;23.340;2024-01-30T09:18:53;4.40;;;3.70;;
9689;SDS011;4884;42.614;23.340;2024-01-30T09:21:19;3.70;;;3.33;;
9689;SDS011;4884;42.614;23.340;2024-01-30T09:23:44;4.27;;;3.10;;
9689;SDS011;4884;42.614;23.340;2024-01-30T09:26:09;3.97;;;3.00;;
9689;SDS011;4884;42.614;23.340;2024-01-30T09:28:35;4.20;;;3.00;;
9689;SDS011;4884;42.614;23.340;2024-01-30T09:31:00;3.73;;;3.03;;
9689;SDS011;4884;42.614;23.340;2024-01-30T09:33:26;4.83;;;3.90;;
9689;SDS011;4884;42.614;23.340;2024-01-30T09:35:51;3.40;;;3.10;;
9689;SDS011;4884;42.614;23.340;2024-01-30T09:38:16;4.27;;;3.73;;
9689;SDS011;4884;42.614;23.340;2024-01-30T09:40:42;3.33;;;2.97;;
9689;SDS011;4884;42.614;23.340;2024-01-30T09:43:07;5.17;;;3.60;;
9689;SDS011;4884;42.614;23.340;2024-01-30T09:45:33;4.50;;;4.03;;
9689;SDS011;4884;42.614;23.340;2024-01-30T09:47:59;4.27;;;3.77;;
9689;SDS011;4884;42.614;23.340;2024-01-30T09:50:25;5.67;;;3.73;;
9689;SDS011;4884;42.614;23.340;2024-01-30T09:52:51;3.87;;;3.57;;
9689;SDS011;4884;42.614;23.340;2024-01-30T09:55:18;4.27;;;3.33;;
9689;SDS011;4884;42.614;23.340;2024-01-30T09:57:43;5.27;;;3.87;;
9689;SDS011;4884;42.614;23.340;2024-01-30T10:00:09;4.67;;;3.83;;
9689;SDS011;4884;42.614;23.340;2024-01-30T10:02:35;5.37;;;4.27;;
9689;SDS011;4884;42.614;23.340;2024-01-30T10:05:01;5.67;;;4.17;;
9689;SDS011;4884;42.614;23.340;2024-01-30T10:07:26;5.17;;;4.50;;
9689;SDS011;4884;42.614;23.340;2024-01-30T10:09:55;5.40;;;4.60;;
9689;SDS011;4884;42.614;23.340;2024-01-30T10:12:21;6.73;;;4.33;;
9689;SDS011;4884;42.614;23.340;2024-01-30T10:14:47;6.30;;;4.67;;
9689;SDS011;4884;42.614;23.340;2024-01-30T10:17:12;7.23;;;4.80;;
9689;SDS011;4884;42.614;23.340;2024-01-30T10:19:39;6.57;;;5.00;;
9689;SDS011;4884;42.614;23.340;2024-01-30T10:22:04;6.67;;;5.03;;
9689;SDS011;4884;42.614;23.340;2024-01-30T10:24:30;6.53;;;4.53;;
9689;SDS011;4884;42.614;23.340;2024-01-30T10:26:56;6.77;;;3.90;;
9689;SDS011;4884;42.614;23.340;2024-01-30T10:29:21;6.93;;;4.90;;
9689;SDS011;4884;42.614;23.340;2024-01-30T10:31:57;6.17;;;4.33;;
9689;SDS011;4884;42.614;23.340;2024-01-30T10:34:26;6.23;;;5.40;;
9689;SDS011;4884;42.614;23.340;2024-01-30T10:36:55;7.23;;;5.53;;
9689;SDS011;4884;42.614;23.340;2024-01-30T10:39:45;8.90;;;5.70;;
9689;SDS011;4884;42.614;23.340;2024-01-30T10:42:15;7.03;;;5.47;;
9689;SDS011;4884;42.614;23.340;2024-01-30T10:47:25;10.63;;;5.40;;
9689;SDS011;4884;42.614;23.340;2024-01-30T10:49:51;5.20;;;4.50;;
9689;SDS011;4884;42.614;23.340;2024-01-30T10:52:17;7.30;;;4.90;;
9689;SDS011;4884;42.614;23.340;2024-01-30T10:54:43;6.17;;;4.33;;
9689;SDS011;4884;42.614;23.340;2024-01-30T10:57:10;6.73;;;4.57;;
9689;SDS011;4884;42.614;23.340;2024-01-30T10:59:36;6.83;;;4.13;;
9689;SDS011;4884;42.614;23.340;2024-01-30T11:02:02;5.50;;;4.40;;
9689;SDS011;4884;42.614;23.340;2024-01-30T11:04:35;6.03;;;5.00;;
9689;SDS011;4884;42.614;23.340;2024-01-30T11:07:01;5.47;;;3.80;;
9689;SDS011;4884;42.614;23.340;2024-01-30T11:09:28;6.00;;;4.60;;
9689;SDS011;4884;42.614;23.340;2024-01-30T11:11:58;5.63;;;4.30;;
9689;SDS011;4884;42.614;23.340;2024-01-30T11:14:26;5.87;;;4.60;;
9689;SDS011;4884;42.614;23.340;2024-01-30T11:16:56;6.57;;;4.23;;
9689;SDS011;4884;42.614;23.340;2024-01-30T11:19:23;7.30;;;4.67;;
9689;SDS011;4884;42.614;23.340;2024-01-30T11:21:54;5.00;;;4.43;;
9689;SDS011;4884;42.614;23.340;2024-01-30T11:24:21;5.83;;;4.43;;
9689;SDS011;4884;42.614;23.340;2024-01-30T11:26:55;4.27;;;3.83;;
9689;SDS011;4884;42.614;23.340;2024-01-30T11:29:26;6.03;;;4.67;;
9689;SDS011;4884;42.614;23.340;2024-01-30T11:31:53;6.87;;;4.50;;
9689;SDS011;4884;42.614;23.340;2024-01-30T11:34:22;5.60;;;4.60;;
9689;SDS011;4884;42.614;23.340;2024-01-30T11:36:50;8.33;;;4.37;;
9689;SDS011;4884;42.614;23.340;2024-01-30T11:39:20;5.77;;;3.80;;
9689;SDS011;4884;42.614;23.340;2024-01-30T11:41:45;5.87;;;4.57;;
9689;SDS011;4884;42.614;23.340;2024-01-30T11:44:11;4.90;;;4.13;;
9689;SDS011;4884;42.614;23.340;2024-01-30T11:46:36;9.37;;;5.20;;
9689;SDS011;4884;42.614;23.340;2024-01-30T11:49:01;5.13;;;3.83;;
9689;SDS011;4884;42.614;23.340;2024-01-30T11:51:27;3.40;;;2.97;;
9689;SDS011;4884;42.614;23.340;2024-01-30T11:53:53;4.37;;;3.33;;
9689;SDS011;4884;42.614;23.340;2024-01-30T11:56:18;3.70;;;3.37;;
9689;SDS011;4884;42.614;23.340;2024-01-30T11:58:43;4.17;;;3.23;;
9689;SDS011;4884;42.614;23.340;2024-01-30T12:01:09;3.70;;;3.17;;
9689;SDS011;4884;42.614;23.340;2024-01-30T12:03:35;4.63;;;3.50;;
9689;SDS011;4884;42.614;23.340;2024-01-30T12:06:02;5.47;;;4.17;;
9689;SDS011;4884;42.614;23.340;2024-01-30T12:08:28;4.93;;;4.07;;
9689;SDS011;4884;42.614;23.340;2024-01-30T12:10:59;4.50;;;3.83;;
9689;SDS011;4884;42.614;23.340;2024-01-30T12:13:27;5.43;;;3.93;;
9689;SDS011;4884;42.614;23.340;2024-01-30T12:15:53;4.70;;;4.17;;
9689;SDS011;4884;42.614;23.340;2024-01-30T12:18:18;5.40;;;4.33;;
9689;SDS011;4884;42.614;23.340;2024-01-30T12:20:45;4.60;;;4.07;;
9689;SDS011;4884;42.614;23.340;2024-01-30T12:23:11;4.37;;;3.63;;
9689;SDS011;4884;42.614;23.340;2024-01-30T12:25:37;3.50;;;2.97;;
9689;SDS011;4884;42.614;23.340;2024-01-30T12:28:03;4.77;;;3.43;;
9689;SDS011;4884;42.614;23.340;2024-01-30T12:30:29;4.30;;;3.90;;
9689;SDS011;4884;42.614;23.340;2024-01-30T12:32:54;7.13;;;4.13;;
9689;SDS011;4884;42.614;23.340;2024-01-30T12:35:20;4.63;;;3.50;;
9689;SDS011;4884;42.614;23.340;2024-01-30T12:37:47;5.40;;;4.17;;
9689;SDS011;4884;42.614;23.340;2024-01-30T12:40:16;4.27;;;3.87;;
9689;SDS011;4884;42.614;23.340;2024-01-30T12:42:42;4.47;;;4.00;;
9689;SDS011;4884;42.614;23.340;2024-01-30T12:45:08;4.63;;;3.80;;
9689;SDS011;4884;42.614;23.340;2024-01-30T12:47:34;4.77;;;4.07;;
9689;SDS011;4884;42.614;23.340;2024-01-30T12:50:00;6.97;;;4.50;;
9689;SDS011;4884;42.614;23.340;2024-01-30T12:52:25;4.53;;;4.00;;
9689;SDS011;4884;42.614;23.340;2024-01-30T12:54:51;5.87;;;4.47;;
9689;SDS011;4884;42.614;23.340;2024-01-30T12:57:17;9.70;;;5.30;;
9689;SDS011;4884;42.614;23.340;2024-01-30T12:59:43;13.03;;;7.17;;
9689;SDS011;4884;42.614;23.340;2024-01-30T13:02:09;8.03;;;6.10;;
9689;SDS011;4884;42.614;23.340;2024-01-30T13:04:34;5.17;;;4.67;;
9689;SDS011;4884;42.614;23.340;2024-01-30T13:07:00;5.47;;;4.57;;
9689;SDS011;4884;42.614;23.340;2024-01-30T13:09:26;4.93;;;3.53;;
9689;SDS011;4884;42.614;23.340;2024-01-30T13:11:51;5.07;;;3.67;;
9689;SDS011;4884;42.614;23.340;2024-01-30T13:14:17;6.00;;;3.77;;
9689;SDS011;4884;42.614;23.340;2024-01-30T13:16:42;4.40;;;3.97;;
9689;SDS011;4884;42.614;23.340;2024-01-30T13:19:08;6.40;;;4.57;;
9689;SDS011;4884;42.614;23.340;2024-01-30T13:21:33;6.07;;;5.03;;
9689;SDS011;4884;42.614;23.340;2024-01-30T13:23:59;6.50;;;4.77;;
9689;SDS011;4884;42.614;23.340;2024-01-30T13:26:24;11.70;;;4.90;;
9689;SDS011;4884;42.614;23.340;2024-01-30T13:28:50;5.97;;;5.17;;
9689;SDS011;4884;42.614;23.340;2024-01-30T13:31:15;6.10;;;4.73;;
9689;SDS011;4884;42.614;23.340;2024-01-30T13:33:41;7.57;;;5.73;;
9689;SDS011;4884;42.614;23.340;2024-01-30T13:36:07;7.10;;;5.10;;
9689;SDS011;4884;42.614;23.340;2024-01-30T13:38:36;4.43;;;3.73;;
9689;SDS011;4884;42.614;23.340;2024-01-30T13:41:01;7.33;;;4.33;;
9689;SDS011;4884;42.614;23.340;2024-01-30T13:43:27;8.00;;;4.07;;
9689;SDS011;4884;42.614;23.340;2024-01-30T13:45:53;5.87;;;4.13;;
9689;SDS011;4884;42.614;23.340;2024-01-30T13:48:18;5.10;;;4.37;;
9689;SDS011;4884;42.614;23.340;2024-01-30T13:50:44;8.23;;;5.07;;
9689;SDS011;4884;42.614;23.340;2024-01-30T13:53:09;8.43;;;6.00;;
9689;SDS011;4884;42.614;23.340;2024-01-30T13:55:35;7.37;;;4.97;;
9689;SDS011;4884;42.614;23.340;2024-01-30T13:58:00;7.17;;;4.73;;
9689;SDS011;4884;42.614;23.340;2024-01-30T14:00:29;6.03;;;4.47;;
9689;SDS011;4884;42.614;23.340;2024-01-30T14:02:54;6.27;;;5.27;;
9689;SDS011;4884;42.614;23.340;2024-01-30T14:05:20;8.63;;;5.70;;
9689;SDS011;4884;42.614;23.340;2024-01-30T14:07:46;8.60;;;5.00;;
9689;SDS011;4884;42.614;23.340;2024-01-30T14:10:12;7.40;;;5.50;;
9689;SDS011;4884;42.614;23.340;2024-01-30T14:12:37;8.07;;;5.80;;
9689;SDS011;4884;42.614;23.340;2024-01-30T14:15:02;7.07;;;4.93;;
9689;SDS011;4884;42.614;23.340;2024-01-30T14:17:28;6.80;;;4.63;;
9689;SDS011;4884;42.614;23.340;2024-01-30T14:19:53;10.67;;;6.57;;
9689;SDS011;4884;42.614;23.340;2024-01-30T14:22:19;6.63;;;4.27;;
9689;SDS011;4884;42.614;23.340;2024-01-30T14:24:44;10.53;;;6.60;;
9689;SDS011;4884;42.614;23.340;2024-01-30T14:27:09;12.80;;;7.60;;
9689;SDS011;4884;42.614;23.340;2024-01-30T14:29:35;8.90;;;6.10;;
9689;SDS011;4884;42.614;23.340;2024-01-30T14:32:01;10.53;;;6.43;;
9689;SDS011;4884;42.614;23.340;2024-01-30T14:34:26;8.97;;;6.17;;
9689;SDS011;4884;42.614;23.340;2024-01-30T14:36:52;8.93;;;5.20;;
9689;SDS011;4884;42.614;23.340;2024-01-30T14:39:18;11.70;;;6.63;;
9689;SDS011;4884;42.614;23.340;2024-01-30T14:41:47;13.57;;;8.23;;
9689;SDS011;4884;42.614;23.340;2024-01-30T14:44:12;11.33;;;7.70;;
9689;SDS011;4884;42.614;23.340;2024-01-30T14:46:38;10.13;;;6.77;;
9689;SDS011;4884;42.614;23.340;2024-01-30T14:49:04;13.40;;;8.97;;
9689;SDS011;4884;42.614;23.340;2024-01-30T14:51:31;14.57;;;10.50;;
9689;SDS011;4884;42.614;23.340;2024-01-30T14:53:57;17.77;;;10.67;;